createdAt,value
2023-02-16T00:02:48.417Z,87.93
2023-02-16T00:06:19.313Z,87.87
2023-02-16T00:09:49.092Z,87.94
2023-02-16T00:13:47.560Z,87.93
2023-02-16T00:17:14.953Z,87.62
2023-02-16T00:20:42.560Z,87.37
2023-02-16T00:24:10.504Z,87.45
2023-02-16T00:27:38.606Z,87.75
2023-02-16T00:31:06.357Z,87.73
2023-02-16T00:34:45.923Z,87.66
2023-02-16T00:38:16.072Z,87.50
2023-02-16T00:41:52.381Z,87.45
2023-02-16T00:45:25.842Z,87.46
2023-02-16T00:48:53.051Z,87.63
2023-02-16T00:52:36.650Z,88.20
2023-02-16T00:56:04.046Z,88.44
2023-02-16T00:59:31.577Z,88.57
2023-02-16T01:03:01.943Z,88.73
2023-02-16T01:06:46.716Z,88.79
2023-02-16T01:10:32.315Z,88.73
2023-02-16T01:13:59.980Z,88.60
2023-02-16T01:17:27.518Z,88.71
2023-02-16T01:20:54.774Z,88.86
2023-02-16T01:24:22.008Z,88.82
2023-02-16T01:27:51.452Z,88.80
2023-02-16T01:31:19.638Z,88.62
2023-02-16T01:34:46.837Z,88.71
2023-02-16T01:38:19.670Z,88.63
2023-02-16T01:42:03.364Z,88.49
2023-02-16T01:45:35.139Z,88.41
2023-02-16T01:49:02.264Z,88.45
2023-02-16T01:52:35.855Z,88.51
2023-02-16T01:56:06.142Z,88.57
2023-02-16T01:59:41.956Z,88.50
2023-02-16T02:03:34.250Z,88.56
2023-02-16T02:07:01.562Z,88.90
2023-02-16T02:10:36.002Z,88.88
2023-02-16T02:14:08.557Z,88.77
2023-02-16T02:17:37.469Z,88.81
2023-02-16T02:21:45.491Z,88.94
2023-02-16T02:25:58.775Z,89.10
2023-02-16T02:29:44.281Z,89.10
2023-02-16T02:33:27.796Z,89.11
2023-02-16T02:37:10.174Z,88.67
2023-02-16T02:40:50.910Z,88.65
2023-02-16T02:44:22.398Z,89.03
2023-02-16T02:47:51.048Z,88.92
2023-02-16T02:51:30.811Z,88.81
2023-02-16T02:55:20.718Z,88.97
2023-02-16T02:59:12.970Z,89.11
2023-02-16T03:02:44.397Z,89.11
2023-02-16T03:06:16.498Z,89.50
2023-02-16T03:09:44.020Z,89.51
2023-02-16T03:13:18.503Z,89.32
2023-02-16T03:17:06.182Z,89.32
2023-02-16T03:20:54.240Z,89.23
2023-02-16T03:24:45.643Z,89.21
2023-02-16T03:28:32.009Z,89.24
2023-02-16T03:32:00.335Z,89.06
2023-02-16T03:35:29.835Z,89.12
2023-02-16T03:38:56.144Z,89.13
2023-02-16T03:42:25.340Z,89.09
2023-02-16T03:45:52.945Z,89.25
2023-02-16T03:49:20.951Z,89.21
2023-02-16T03:52:48.528Z,89.44
2023-02-16T03:56:15.945Z,89.52
2023-02-16T03:59:45.978Z,89.59
2023-02-16T04:03:13.807Z,89.72
2023-02-16T04:06:51.057Z,89.52
2023-02-16T04:10:19.066Z,89.35
2023-02-16T04:13:46.322Z,89.37
2023-02-16T04:17:13.796Z,89.20
2023-02-16T04:20:41.074Z,89.52
2023-02-16T04:24:09.378Z,89.59
2023-02-16T04:27:37.296Z,89.58
2023-02-16T04:31:04.881Z,89.77
2023-02-16T04:34:32.217Z,89.67
2023-02-16T04:37:59.609Z,89.55
2023-02-16T04:41:27.475Z,89.86
2023-02-16T04:44:57.308Z,89.77
2023-02-16T04:48:34.723Z,89.92
2023-02-16T04:52:12.469Z,90.05
2023-02-16T04:55:39.674Z,90.22
2023-02-16T04:59:06.918Z,90.42
2023-02-16T05:02:37.082Z,90.24
2023-02-16T05:06:07.984Z,90.01
2023-02-16T05:09:35.071Z,90.06
2023-02-16T05:13:20.143Z,90.10
2023-02-16T05:16:47.920Z,89.91
2023-02-16T05:20:16.092Z,89.86
2023-02-16T05:23:43.167Z,89.99
2023-02-16T05:27:13.245Z,90.03
2023-02-16T05:30:40.368Z,89.87
2023-02-16T05:34:07.702Z,89.95
2023-02-16T05:37:37.442Z,89.96
2023-02-16T05:41:05.045Z,90.09
2023-02-16T05:44:32.577Z,90.29
2023-02-16T05:47:59.938Z,90.39
2023-02-16T05:51:30.698Z,90.29
2023-02-16T05:54:57.847Z,90.46
2023-02-16T05:58:25.015Z,90.54
2023-02-16T06:01:52.739Z,90.61
2023-02-16T06:05:20.473Z,90.56
2023-02-16T06:08:47.705Z,90.54
2023-02-16T06:12:15.128Z,90.57
2023-02-16T06:15:42.388Z,90.72
2023-02-16T06:19:10.564Z,90.37
2023-02-16T06:22:37.888Z,90.60
2023-02-16T06:26:05.399Z,90.71
2023-02-16T06:29:39.962Z,90.85
2023-02-16T06:33:07.822Z,91.14
2023-02-16T06:36:36.214Z,91.00
2023-02-16T06:40:03.631Z,90.77
2023-02-16T06:43:31.051Z,90.84
2023-02-16T06:46:58.528Z,90.92
2023-02-16T06:50:25.873Z,90.85
2023-02-16T06:53:53.068Z,90.94
2023-02-16T06:57:20.267Z,90.90
2023-02-16T07:00:51.499Z,90.92
2023-02-16T07:04:21.419Z,90.94
2023-02-16T07:08:09.058Z,90.78
2023-02-16T07:11:36.631Z,90.97
2023-02-16T07:15:04.364Z,90.81
2023-02-16T07:18:32.097Z,90.63
2023-02-16T07:21:59.191Z,90.69
2023-02-16T07:25:26.495Z,90.62
2023-02-16T07:28:54.197Z,90.71
2023-02-16T07:32:24.539Z,90.50
2023-02-16T07:35:51.816Z,90.04
2023-02-16T07:39:19.850Z,90.15
2023-02-16T07:42:47.006Z,89.48
2023-02-16T07:46:14.557Z,89.33
2023-02-16T07:49:42.478Z,89.25
2023-02-16T07:53:12.535Z,89.10
2023-02-16T07:56:41.150Z,88.93
2023-02-16T08:00:12.469Z,89.27
2023-02-16T08:03:40.547Z,88.91
2023-02-16T08:07:08.111Z,88.60
2023-02-16T08:10:35.488Z,88.13
2023-02-16T08:14:03.037Z,87.78
2023-02-16T08:17:40.536Z,87.52
2023-02-16T08:21:15.002Z,87.08
2023-02-16T08:24:42.840Z,86.80
2023-02-16T08:28:10.315Z,86.44
2023-02-16T08:31:41.808Z,86.06
2023-02-16T08:35:10.690Z,85.92
2023-02-16T08:38:38.184Z,85.94
2023-02-16T08:42:05.840Z,85.94
2023-02-16T08:45:33.213Z,85.96
2023-02-16T08:49:01.634Z,86.07
2023-02-16T08:52:29.136Z,86.12
2023-02-16T08:55:57.731Z,85.99
2023-02-16T08:59:28.490Z,85.92
2023-02-16T09:02:59.608Z,86.11
2023-02-16T09:06:27.461Z,86.10
2023-02-16T09:10:04.452Z,85.96
2023-02-16T09:13:31.553Z,85.63
2023-02-16T09:16:58.723Z,85.41
2023-02-16T09:20:27.439Z,85.37
2023-02-16T09:23:57.777Z,85.56
2023-02-16T09:27:24.875Z,85.23
2023-02-16T09:30:52.098Z,85.03
2023-02-16T09:34:21.190Z,84.67
2023-02-16T09:37:49.947Z,84.53
2023-02-16T09:41:28.311Z,84.14
2023-02-16T09:45:03.785Z,84.02
2023-02-16T09:48:39.427Z,84.00
2023-02-16T09:52:22.434Z,83.30
2023-02-16T09:56:04.215Z,83.45
2023-02-16T09:59:45.307Z,83.15
2023-02-16T10:03:37.397Z,83.21
2023-02-16T10:07:23.567Z,83.25
2023-02-16T10:11:02.717Z,83.25
2023-02-16T10:14:34.701Z,83.04
2023-02-16T10:18:07.476Z,82.48
2023-02-16T10:21:35.162Z,82.58
2023-02-16T10:25:07.450Z,82.48
2023-02-16T10:28:43.549Z,82.20
2023-02-16T10:32:21.274Z,82.17
2023-02-16T10:35:50.340Z,81.87
2023-02-16T10:39:28.723Z,82.05
2023-02-16T10:43:02.704Z,82.02
2023-02-16T10:46:37.763Z,82.09
2023-02-16T10:50:07.208Z,82.16
2023-02-16T10:53:42.102Z,82.15
2023-02-16T10:57:17.054Z,82.03
2023-02-16T11:00:53.916Z,81.49
2023-02-16T11:04:35.885Z,81.64
2023-02-16T11:08:10.990Z,81.66
2023-02-16T11:11:43.086Z,81.72
2023-02-16T11:15:27.641Z,81.75
2023-02-16T11:19:02.893Z,81.25
2023-02-16T11:22:34.665Z,81.11
2023-02-16T11:26:05.969Z,80.85
2023-02-16T11:29:34.396Z,80.47
2023-02-16T11:33:04.631Z,80.85
2023-02-16T11:36:37.452Z,80.90
2023-02-16T11:40:09.405Z,81.00
2023-02-16T11:43:39.718Z,80.77
2023-02-16T11:47:10.089Z,80.06
2023-02-16T11:50:39.900Z,80.04
2023-02-16T11:54:07.774Z,80.10
2023-02-16T11:57:37.458Z,79.41
2023-02-16T12:01:18.114Z,78.61
2023-02-16T12:04:57.843Z,78.29
2023-02-16T12:08:30.224Z,78.23
2023-02-16T12:12:15.590Z,77.48
2023-02-16T12:15:51.810Z,77.55
2023-02-16T12:19:32.904Z,77.32
2023-02-16T12:23:05.943Z,76.97
2023-02-16T12:26:48.810Z,77.17
2023-02-16T12:30:29.824Z,77.29
2023-02-16T12:34:07.489Z,77.73
2023-02-16T12:37:45.883Z,77.74
2023-02-16T12:41:25.962Z,77.10
2023-02-16T12:44:56.002Z,77.28
2023-02-16T12:48:37.304Z,77.27
2023-02-16T12:52:08.633Z,77.22
2023-02-16T12:55:44.137Z,78.24
2023-02-16T12:59:21.526Z,76.85
2023-02-16T13:02:53.634Z,77.12
2023-02-16T13:06:29.942Z,76.71
2023-02-16T13:10:05.879Z,76.67
2023-02-16T13:13:36.716Z,76.50
2023-02-16T13:17:10.408Z,76.75
2023-02-16T13:20:42.252Z,76.70
2023-02-16T13:24:17.735Z,76.85
2023-02-16T13:27:53.554Z,76.49
2023-02-16T13:31:33.752Z,75.65
2023-02-16T13:35:18.047Z,75.74
2023-02-16T13:39:29.961Z,75.51
2023-02-16T13:43:21.337Z,75.73
2023-02-16T13:46:52.600Z,75.40
2023-02-16T13:50:32.790Z,75.28
2023-02-16T13:54:02.969Z,74.79
2023-02-16T13:58:02.884Z,75.08
2023-02-16T14:01:44.803Z,75.00
2023-02-16T14:05:23.731Z,75.04
2023-02-16T14:09:29.063Z,75.26
2023-02-16T14:12:56.232Z,75.15
2023-02-16T14:16:46.070Z,75.12
2023-02-16T14:20:30.121Z,75.05
2023-02-16T14:24:03.359Z,75.07
2023-02-16T14:27:49.918Z,75.17
2023-02-16T14:31:22.903Z,75.11
2023-02-16T14:34:58.463Z,75.40
2023-02-16T14:38:29.652Z,75.46
2023-02-16T14:42:07.426Z,75.84
2023-02-16T14:45:56.609Z,75.51
2023-02-16T14:50:15.412Z,75.71
2023-02-16T14:54:19.268Z,76.10
2023-02-16T14:57:53.859Z,76.15
2023-02-16T15:01:23.981Z,76.39
2023-02-16T15:04:51.305Z,76.47
2023-02-16T15:08:22.568Z,76.48
2023-02-16T15:12:14.335Z,76.76
2023-02-16T15:15:48.648Z,76.84
2023-02-16T15:19:25.497Z,77.04
2023-02-16T15:22:54.649Z,76.98
2023-02-16T15:26:24.517Z,77.22
2023-02-16T15:30:05.994Z,77.47
2023-02-16T15:33:37.354Z,77.52
2023-02-16T15:37:20.237Z,77.72
2023-02-16T15:40:47.564Z,77.78
2023-02-16T15:44:34.320Z,77.70
2023-02-16T15:48:22.450Z,77.93
2023-02-16T15:51:50.396Z,77.97
2023-02-16T15:55:18.194Z,78.09
2023-02-16T15:58:45.854Z,78.16
2023-02-16T16:02:17.566Z,78.16
2023-02-16T16:05:54.308Z,78.18
2023-02-16T16:09:26.717Z,78.57
2023-02-16T16:12:57.994Z,78.44
2023-02-16T16:16:25.220Z,78.66
2023-02-16T16:19:52.732Z,78.92
2023-02-16T16:23:28.461Z,79.03
2023-02-16T16:26:58.111Z,79.23
2023-02-16T16:30:33.702Z,79.40
2023-02-16T16:34:02.928Z,79.38
2023-02-16T16:37:32.514Z,79.41
2023-02-16T16:40:59.063Z,79.54
2023-02-16T16:44:36.157Z,79.76
2023-02-16T16:48:10.657Z,79.78
2023-02-16T16:51:43.034Z,80.03
2023-02-16T16:55:26.324Z,80.17
2023-02-16T16:58:54.661Z,80.10
2023-02-16T17:02:21.805Z,80.57
2023-02-16T17:05:49.444Z,80.87
2023-02-16T17:09:16.948Z,81.26
2023-02-16T17:12:44.444Z,81.36
2023-02-16T17:16:18.140Z,81.66
2023-02-16T17:19:45.401Z,81.77
2023-02-16T17:23:15.246Z,81.75
2023-02-16T17:26:40.813Z,81.70
2023-02-16T17:30:11.260Z,81.62
2023-02-16T17:33:38.521Z,81.71
2023-02-16T17:37:08.477Z,81.91
2023-02-16T17:40:35.999Z,82.01
2023-02-16T17:44:04.250Z,82.05
2023-02-16T17:47:31.432Z,81.97
2023-02-16T17:50:59.239Z,82.06
2023-02-16T17:54:26.660Z,82.16
2023-02-16T17:57:55.893Z,82.05
2023-02-16T18:01:23.604Z,82.18
2023-02-16T18:04:51.032Z,82.27
2023-02-16T18:08:18.198Z,82.54
2023-02-16T18:11:45.467Z,82.82
2023-02-16T18:15:13.005Z,83.19
2023-02-16T18:18:40.284Z,83.10
2023-02-16T18:22:07.710Z,83.29
2023-02-16T18:25:35.714Z,83.29
2023-02-16T18:29:03.000Z,83.44
2023-02-16T18:32:30.172Z,83.38
2023-02-16T18:35:58.909Z,83.44
2023-02-16T18:39:26.260Z,83.24
2023-02-16T18:42:53.624Z,83.41
2023-02-16T18:46:20.765Z,83.52
2023-02-16T18:49:49.530Z,83.61
2023-02-16T18:53:17.508Z,83.63
2023-02-16T18:56:44.656Z,83.69
2023-02-16T19:00:16.431Z,83.61
2023-02-16T19:03:43.603Z,83.84
2023-02-16T19:07:11.896Z,83.93
2023-02-16T19:10:39.019Z,83.81
2023-02-16T19:14:06.345Z,83.97
2023-02-16T19:17:33.467Z,84.06
2023-02-16T19:21:00.729Z,83.68
2023-02-16T19:24:28.054Z,83.76
2023-02-16T19:27:55.636Z,83.47
2023-02-16T19:31:25.520Z,83.46
2023-02-16T19:34:52.773Z,83.56
2023-02-16T19:38:20.122Z,83.42
2023-02-16T19:41:56.185Z,83.53
2023-02-16T19:45:23.487Z,83.53
2023-02-16T19:48:51.359Z,83.44
2023-02-16T19:52:18.477Z,83.61
2023-02-16T19:55:46.402Z,83.65
2023-02-16T19:59:15.397Z,83.28
2023-02-16T20:02:42.583Z,83.45
2023-02-16T20:06:18.674Z,83.43
2023-02-16T20:09:45.862Z,83.48
2023-02-16T20:13:13.554Z,83.63
2023-02-16T20:16:40.926Z,83.62
2023-02-16T20:20:10.087Z,83.42
2023-02-16T20:23:38.108Z,83.66
2023-02-16T20:27:06.059Z,83.65
2023-02-16T20:30:33.336Z,83.63
2023-02-16T20:34:01.659Z,83.73
2023-02-16T20:37:30.335Z,83.68
2023-02-16T20:40:57.552Z,83.87
2023-02-16T20:44:25.148Z,83.75
2023-02-16T20:47:52.409Z,83.89
2023-02-16T20:51:20.510Z,83.73
2023-02-16T20:54:48.145Z,83.76
2023-02-16T20:58:15.640Z,83.65
2023-02-16T21:01:46.489Z,83.84
2023-02-16T21:05:14.820Z,83.62
2023-02-16T21:08:41.997Z,83.75
2023-02-16T21:12:09.739Z,83.49
2023-02-16T21:15:36.903Z,83.66
2023-02-16T21:19:09.238Z,83.75
2023-02-16T21:22:41.498Z,83.70
2023-02-16T21:26:09.811Z,83.82
2023-02-16T21:29:37.077Z,83.76
2023-02-16T21:33:04.612Z,83.76
2023-02-16T21:36:31.744Z,83.87
2023-02-16T21:40:16.433Z,84.10
2023-02-16T21:43:43.641Z,83.87
2023-02-16T21:47:30.719Z,83.81
2023-02-16T21:50:57.880Z,84.04
2023-02-16T21:54:45.052Z,83.95
2023-02-16T21:58:12.247Z,84.04
2023-02-16T22:01:42.666Z,84.22
2023-02-16T22:05:10.387Z,84.04
2023-02-16T22:08:39.175Z,84.23
2023-02-16T22:12:06.492Z,84.01
2023-02-16T22:15:36.671Z,84.03
2023-02-16T22:19:08.965Z,84.29
2023-02-16T22:22:36.258Z,84.31
2023-02-16T22:26:06.549Z,84.32
2023-02-16T22:29:34.362Z,84.47
2023-02-16T22:33:01.664Z,84.70
2023-02-16T22:36:29.612Z,84.34
2023-02-16T22:39:58.940Z,84.60
2023-02-16T22:43:30.556Z,84.78
2023-02-16T22:46:59.424Z,84.92
2023-02-16T22:50:32.094Z,84.63
2023-02-16T22:54:00.730Z,84.47
2023-02-16T22:57:28.044Z,84.37
2023-02-16T23:00:55.984Z,84.71
2023-02-16T23:04:24.192Z,85.09
2023-02-16T23:07:51.308Z,84.76
2023-02-16T23:11:18.649Z,84.87
2023-02-16T23:14:48.144Z,85.08
2023-02-16T23:18:15.404Z,84.60
2023-02-16T23:21:43.286Z,84.47
2023-02-16T23:25:28.601Z,84.51
2023-02-16T23:28:59.055Z,84.64
2023-02-16T23:32:26.099Z,84.69
2023-02-16T23:35:54.273Z,84.55
2023-02-16T23:39:21.415Z,84.55
2023-02-16T23:42:48.938Z,84.55
2023-02-16T23:46:16.446Z,84.68
2023-02-16T23:49:46.773Z,84.58
2023-02-16T23:53:14.025Z,84.74
2023-02-16T23:56:42.464Z,84.35
